^^
Saratoga-Weather Station Historical Data
Daily Summary for September 19, 2021 Units:  Both    English   Metric
Daily Weekly Monthly Yearly Custom
  High: Low: Average:
Temperature: 69.1 °F /  20.6 °C 53.4 °F /  11.9 °C 59.9 °F /  15.5 °C
Dew Point: 59 °F /  15 °C 51.6 °F /  10.9 °C 54.5 °F /  12.5 °C
Humidity: 94% 66% 83%
Wind Speed: 6.9mph /  11.1km/h - 0.9mph /  1.4km/h
Wind Gust: 9mph /  14.5km/h - -
Wind- - SSE
Pressure: 29.9 in /  1012.9 hPa 29.9 in /  1011.2 hPa -
Precipitation: 0 in /  0.0 mm    
Historical Graphs
 
 
Tabular Data for September 19, 2021
Time Temperature Dew Point Pressure Wind Wind Speed Wind Gust Humidity Rainfall Rate (Hourly) solar
00:04 56.1 °F /  13.4 °C 53.2 °F /  11.8 °C 29.9in /  1012.9hPa Calm   1mph /  1.6km/h 90% 0in /  0.0mm 0 W/m2
00:10 55.9 °F /  13.3 °C 53.1 °F /  11.7 °C 29.9in /  1012.5hPa South 0.9mph /  1.4km/h 1mph /  1.6km/h 90% 0in /  0.0mm 0 W/m2
00:15 55.9 °F /  13.3 °C 53.1 °F /  11.7 °C 29.9in /  1012.5hPa South 0.9mph /  1.4km/h 2mph /  3.2km/h 90% 0in /  0.0mm 0 W/m2
00:20 55.9 °F /  13.3 °C 53.1 °F /  11.7 °C 29.9in /  1012.5hPa Calm     90% 0in /  0.0mm 0 W/m2
00:25 55.9 °F /  13.3 °C 53.1 °F /  11.7 °C 29.9in /  1012.5hPa Calm     90% 0in /  0.0mm 0 W/m2
00:30 55.9 °F /  13.3 °C 53.1 °F /  11.7 °C 29.9in /  1012.5hPa Calm   2mph /  3.2km/h 90% 0in /  0.0mm 0 W/m2
00:35 56.1 °F /  13.4 °C 53.2 °F /  11.8 °C 29.9in /  1012.5hPa Calm     90% 0in /  0.0mm 0 W/m2
00:40 56.1 °F /  13.4 °C 53.2 °F /  11.8 °C 29.9in /  1012.5hPa Calm   2mph /  3.2km/h 90% 0in /  0.0mm 0 W/m2
00:45 56.5 °F /  13.6 °C 53.6 °F /  12 °C 29.9in /  1012.5hPa Calm   2mph /  3.2km/h 90% 0in /  0.0mm 0 W/m2
00:50 56.5 °F /  13.6 °C 53.2 °F /  11.8 °C 29.9in /  1012.5hPa Calm     89% 0in /  0.0mm 0 W/m2
00:55 56.5 °F /  13.6 °C 53.2 °F /  11.8 °C 29.9in /  1012.5hPa Calm   2mph /  3.2km/h 89% 0in /  0.0mm 0 W/m2
01:00 56.5 °F /  13.6 °C 53.2 °F /  11.8 °C 29.9in /  1012.5hPa Calm   1mph /  1.6km/h 89% 0in /  0.0mm 0 W/m2
01:05 56.5 °F /  13.6 °C 53.2 °F /  11.8 °C 29.9in /  1012.5hPa WNW 0.9mph /  1.4km/h 1mph /  1.6km/h 89% 0in /  0.0mm 0 W/m2
01:10 56.7 °F /  13.7 °C 53.4 °F /  11.9 °C 29.9in /  1012.5hPa Calm   1mph /  1.6km/h 89% 0in /  0.0mm 0 W/m2
01:15 56.7 °F /  13.7 °C 53.4 °F /  11.9 °C 29.9in /  1012.5hPa WNW 0.9mph /  1.4km/h 1mph /  1.6km/h 89% 0in /  0.0mm 0 W/m2
01:20 56.7 °F /  13.7 °C 53.4 °F /  11.9 °C 29.9in /  1012.5hPa Calm     89% 0in /  0.0mm 0 W/m2
01:25 56.7 °F /  13.7 °C 53.4 °F /  11.9 °C 29.9in /  1012.5hPa Calm     89% 0in /  0.0mm 0 W/m2
01:30 56.7 °F /  13.7 °C 53.4 °F /  11.9 °C 29.9in /  1012.5hPa Calm     89% 0in /  0.0mm 0 W/m2
01:35 56.7 °F /  13.7 °C 53.4 °F /  11.9 °C 29.9in /  1012.5hPa Calm     89% 0in /  0.0mm 0 W/m2
01:40 56.5 °F /  13.6 °C 53.2 °F /  11.8 °C 29.9in /  1012.5hPa Calm     89% 0in /  0.0mm 0 W/m2
01:45 56.5 °F /  13.6 °C 53.2 °F /  11.8 °C 29.9in /  1012.5hPa Calm     89% 0in /  0.0mm 0 W/m2
01:50 56.3 °F /  13.5 °C 53.1 °F /  11.7 °C 29.9in /  1012.5hPa Calm     89% 0in /  0.0mm 0 W/m2
01:55 56.1 °F /  13.4 °C 52.9 °F /  11.6 °C 29.9in /  1012.5hPa Calm     89% 0in /  0.0mm 0 W/m2
02:00 55.9 °F /  13.3 °C 52.7 °F /  11.5 °C 29.9in /  1012.5hPa Calm     89% 0in /  0.0mm 0 W/m2
02:05 55.9 °F /  13.3 °C 53.1 °F /  11.7 °C 29.9in /  1012.2hPa Calm     90% 0in /  0.0mm 0 W/m2
02:10 55.8 °F /  13.2 °C 52.9 °F /  11.6 °C 29.9in /  1012.2hPa Calm   2mph /  3.2km/h 90% 0in /  0.0mm 0 W/m2
02:15 55.8 °F /  13.2 °C 52.9 °F /  11.6 °C 29.9in /  1012.2hPa Calm   1mph /  1.6km/h 90% 0in /  0.0mm 0 W/m2
02:20 55.8 °F /  13.2 °C 52.9 °F /  11.6 °C 29.9in /  1012.2hPa Calm     90% 0in /  0.0mm 0 W/m2
02:25 55.6 °F /  13.1 °C 52.7 °F /  11.5 °C 29.9in /  1012.2hPa Calm   2mph /  3.2km/h 90% 0in /  0.0mm 0 W/m2
02:30 55.6 °F /  13.1 °C 53.1 °F /  11.7 °C 29.9in /  1012.2hPa Calm     91% 0in /  0.0mm 0 W/m2
02:35 55.4 °F /  13 °C 52.9 °F /  11.6 °C 29.9in /  1012.2hPa Calm     91% 0in /  0.0mm 0 W/m2
02:40 55.4 °F /  13 °C 52.9 °F /  11.6 °C 29.9in /  1011.9hPa Calm     91% 0in /  0.0mm 0 W/m2
02:45 55.2 °F /  12.9 °C 52.7 °F /  11.5 °C 29.9in /  1011.9hPa Calm     91% 0in /  0.0mm 0 W/m2
02:50 55.2 °F /  12.9 °C 52.7 °F /  11.5 °C 29.9in /  1011.9hPa Calm     91% 0in /  0.0mm 0 W/m2
02:55 55 °F /  12.8 °C 52.5 °F /  11.4 °C 29.9in /  1011.9hPa Calm     91% 0in /  0.0mm 0 W/m2
03:00 55 °F /  12.8 °C 52.7 °F /  11.5 °C 29.9in /  1011.9hPa Calm     92% 0in /  0.0mm 0 W/m2
03:05 55 °F /  12.8 °C 52.7 °F /  11.5 °C 29.9in /  1011.9hPa WNW 0.9mph /  1.4km/h 2mph /  3.2km/h 92% 0in /  0.0mm 0 W/m2
03:10 54.9 °F /  12.7 °C 52.5 °F /  11.4 °C 29.9in /  1011.9hPa WNW 2mph /  3.2km/h 2mph /  3.2km/h 92% 0in /  0.0mm 0 W/m2
03:15 54.9 °F /  12.7 °C 52.5 °F /  11.4 °C 29.9in /  1011.9hPa Calm     92% 0in /  0.0mm 0 W/m2
03:20 54.9 °F /  12.7 °C 52.5 °F /  11.4 °C 29.9in /  1011.9hPa Calm     92% 0in /  0.0mm 0 W/m2
03:25 54.9 °F /  12.7 °C 52.5 °F /  11.4 °C 29.9in /  1011.9hPa Calm     92% 0in /  0.0mm 0 W/m2
03:30 54.7 °F /  12.6 °C 52.3 °F /  11.3 °C 29.9in /  1011.9hPa Calm   1mph /  1.6km/h 92% 0in /  0.0mm 0 W/m2
03:35 54.7 °F /  12.6 °C 52.3 °F /  11.3 °C 29.9in /  1011.9hPa Calm     92% 0in /  0.0mm 0 W/m2
03:40 54.7 °F /  12.6 °C 52.7 °F /  11.5 °C 29.9in /  1011.9hPa Calm   3mph /  4.8km/h 93% 0in /  0.0mm 0 W/m2
03:45 54.7 °F /  12.6 °C 52.7 °F /  11.5 °C 29.9in /  1011.9hPa Calm   2mph /  3.2km/h 93% 0in /  0.0mm 0 W/m2
03:50 54.7 °F /  12.6 °C 52.7 °F /  11.5 °C 29.9in /  1011.9hPa SW 0.9mph /  1.4km/h 3mph /  4.8km/h 93% 0in /  0.0mm 0 W/m2
03:55 54.5 °F /  12.5 °C 52.5 °F /  11.4 °C 29.9in /  1011.9hPa Calm   1mph /  1.6km/h 93% 0in /  0.0mm 0 W/m2
04:01 54.3 °F /  12.4 °C 52.3 °F /  11.3 °C 29.9in /  1011.9hPa Calm   1mph /  1.6km/h 93% 0in /  0.0mm 0 W/m2
04:06 54.3 °F /  12.4 °C 52.3 °F /  11.3 °C 29.9in /  1011.9hPa Calm   1mph /  1.6km/h 93% 0in /  0.0mm 0 W/m2
04:11 54.3 °F /  12.4 °C 52.3 °F /  11.3 °C 29.9in /  1011.9hPa Calm     93% 0in /  0.0mm 0 W/m2
04:16 54.3 °F /  12.4 °C 52.3 °F /  11.3 °C 29.9in /  1011.9hPa Calm     93% 0in /  0.0mm 0 W/m2
04:21 54.3 °F /  12.4 °C 52.3 °F /  11.3 °C 29.9in /  1011.9hPa Calm     93% 0in /  0.0mm 0 W/m2
04:26 54.3 °F /  12.4 °C 52.3 °F /  11.3 °C 29.9in /  1011.9hPa Calm     93% 0in /  0.0mm 0 W/m2
04:31 54.3 °F /  12.4 °C 52.3 °F /  11.3 °C 29.9in /  1011.9hPa Calm     93% 0in /  0.0mm 0 W/m2
04:36 54.3 °F /  12.4 °C 52.3 °F /  11.3 °C 29.9in /  1011.9hPa Calm     93% 0in /  0.0mm 0 W/m2
04:41 54.5 °F /  12.5 °C 52.5 °F /  11.4 °C 29.9in /  1011.9hPa Calm   1mph /  1.6km/h 93% 0in /  0.0mm 0 W/m2
04:46 54.5 °F /  12.5 °C 52.5 °F /  11.4 °C 29.9in /  1011.5hPa Calm   1mph /  1.6km/h 93% 0in /  0.0mm 0 W/m2
04:51 54.3 °F /  12.4 °C 52.3 °F /  11.3 °C 29.9in /  1011.5hPa Calm     93% 0in /  0.0mm 0 W/m2
04:56 54.3 °F /  12.4 °C 52.3 °F /  11.3 °C 29.9in /  1011.5hPa Calm     93% 0in /  0.0mm 0 W/m2
05:01 54.1 °F /  12.3 °C 52.2 °F /  11.2 °C 29.9in /  1011.5hPa Calm     93% 0in /  0.0mm 0 W/m2
05:06 54.1 °F /  12.3 °C 52.2 °F /  11.2 °C 29.9in /  1011.5hPa SW 0.9mph /  1.4km/h 2mph /  3.2km/h 93% 0in /  0.0mm 0 W/m2
05:11 54.1 °F /  12.3 °C 52.2 °F /  11.2 °C 29.9in /  1011.5hPa SW 0.9mph /  1.4km/h 2mph /  3.2km/h 93% 0in /  0.0mm 0 W/m2
05:16 54 °F /  12.2 °C 52 °F /  11.1 °C 29.9in /  1011.5hPa Calm     93% 0in /  0.0mm 0 W/m2
05:21 54 °F /  12.2 °C 52 °F /  11.1 °C 29.9in /  1011.5hPa Calm   1mph /  1.6km/h 93% 0in /  0.0mm 0 W/m2
05:26 54 °F /  12.2 °C 52 °F /  11.1 °C 29.9in /  1011.5hPa Calm     93% 0in /  0.0mm 0 W/m2
05:31 53.8 °F /  12.1 °C 51.8 °F /  11 °C 29.9in /  1011.5hPa Calm     93% 0in /  0.0mm 0 W/m2
05:36 53.8 °F /  12.1 °C 51.8 °F /  11 °C 29.9in /  1011.5hPa Calm     93% 0in /  0.0mm 0 W/m2
05:41 53.8 °F /  12.1 °C 52.2 °F /  11.2 °C 29.9in /  1011.5hPa Calm   1mph /  1.6km/h 94% 0in /  0.0mm 0 W/m2
05:46 53.8 °F /  12.1 °C 52.2 °F /  11.2 °C 29.9in /  1011.5hPa Calm     94% 0in /  0.0mm 0 W/m2
05:51 53.8 °F /  12.1 °C 52.2 °F /  11.2 °C 29.9in /  1011.5hPa SW 1mph /  1.6km/h 1mph /  1.6km/h 94% 0in /  0.0mm 0 W/m2
05:56 53.8 °F /  12.1 °C 52.2 °F /  11.2 °C 29.9in /  1011.5hPa Calm     94% 0in /  0.0mm 0 W/m2
06:01 53.6 °F /  12 °C 52 °F /  11.1 °C 29.9in /  1011.5hPa Calm   2mph /  3.2km/h 94% 0in /  0.0mm 0 W/m2
06:06 53.6 °F /  12 °C 52 °F /  11.1 °C 29.9in /  1011.5hPa Calm     94% 0in /  0.0mm 0 W/m2
06:11 53.8 °F /  12.1 °C 52.2 °F /  11.2 °C 29.9in /  1011.2hPa Calm     94% 0in /  0.0mm 0 W/m2
06:16 54 °F /  12.2 °C 52.3 °F /  11.3 °C 29.9in /  1011.5hPa Calm   1mph /  1.6km/h 94% 0in /  0.0mm 0 W/m2
06:21 54 °F /  12.2 °C 52.3 °F /  11.3 °C 29.9in /  1011.5hPa Calm   1mph /  1.6km/h 94% 0in /  0.0mm 0 W/m2
06:26 54 °F /  12.2 °C 52.3 °F /  11.3 °C 29.9in /  1011.5hPa SW 0.9mph /  1.4km/h 1mph /  1.6km/h 94% 0in /  0.0mm 0 W/m2
06:31 54 °F /  12.2 °C 52.3 °F /  11.3 °C 29.9in /  1011.5hPa Calm     94% 0in /  0.0mm 0 W/m2
06:36 54 °F /  12.2 °C 52.3 °F /  11.3 °C 29.9in /  1011.5hPa SW 0.9mph /  1.4km/h 2mph /  3.2km/h 94% 0in /  0.0mm 0 W/m2
06:41 53.8 °F /  12.1 °C 51.8 °F /  11 °C 29.9in /  1011.5hPa Calm   1mph /  1.6km/h 93% 0in /  0.0mm 0 W/m2
06:46 53.6 °F /  12 °C 52 °F /  11.1 °C 29.9in /  1011.5hPa Calm   1mph /  1.6km/h 94% 0in /  0.0mm 0 W/m2
06:51 53.4 °F /  11.9 °C 51.8 °F /  11 °C 29.9in /  1011.5hPa Calm     94% 0in /  0.0mm 0 W/m2
06:56 53.6 °F /  12 °C 52 °F /  11.1 °C 29.9in /  1011.5hPa Calm     94% 0in /  0.0mm 0 W/m2
07:01 53.6 °F /  12 °C 52 °F /  11.1 °C 29.9in /  1011.5hPa Calm   1mph /  1.6km/h 94% 0in /  0.0mm 0 W/m2
07:06 53.8 °F /  12.1 °C 52.2 °F /  11.2 °C 29.9in /  1011.5hPa Calm   2mph /  3.2km/h 94% 0in /  0.0mm 0 W/m2
07:11 53.8 °F /  12.1 °C 52.2 °F /  11.2 °C 29.9in /  1011.5hPa Calm     94% 0in /  0.0mm 0 W/m2
07:16 54 °F /  12.2 °C 52.3 °F /  11.3 °C 29.9in /  1011.5hPa Calm   2mph /  3.2km/h 94% 0in /  0.0mm 5 W/m2
07:21 53.8 °F /  12.1 °C 51.8 °F /  11 °C 29.9in /  1011.5hPa Calm     93% 0in /  0.0mm 5 W/m2
07:26 53.8 °F /  12.1 °C 51.8 °F /  11 °C 29.9in /  1011.5hPa Calm     93% 0in /  0.0mm 11 W/m2
07:31 53.6 °F /  12 °C 51.6 °F /  10.9 °C 29.9in /  1011.9hPa Calm   1mph /  1.6km/h 93% 0in /  0.0mm 14 W/m2
07:36 53.4 °F /  11.9 °C 51.8 °F /  11 °C 29.9in /  1011.9hPa Calm     94% 0in /  0.0mm 16 W/m2
07:41 53.6 °F /  12 °C 52 °F /  11.1 °C 29.9in /  1011.9hPa Calm     94% 0in /  0.0mm 19 W/m2
07:46 53.6 °F /  12 °C 52 °F /  11.1 °C 29.9in /  1011.9hPa Calm     94% 0in /  0.0mm 25 W/m2
07:51 53.8 °F /  12.1 °C 52.2 °F /  11.2 °C 29.9in /  1011.9hPa Calm     94% 0in /  0.0mm 28 W/m2
07:56 53.8 °F /  12.1 °C 52.2 °F /  11.2 °C 29.9in /  1011.9hPa SSW 0.9mph /  1.4km/h 2mph /  3.2km/h 94% 0in /  0.0mm 32 W/m2
08:01 54 °F /  12.2 °C 52.3 °F /  11.3 °C 29.9in /  1011.9hPa SSW 0.9mph /  1.4km/h 1mph /  1.6km/h 94% 0in /  0.0mm 33 W/m2
08:06 54 °F /  12.2 °C 52 °F /  11.1 °C 29.9in /  1011.9hPa Calm   1mph /  1.6km/h 93% 0in /  0.0mm 35 W/m2
08:11 54.1 °F /  12.3 °C 52.2 °F /  11.2 °C 29.9in /  1011.9hPa Calm     93% 0in /  0.0mm 35 W/m2
08:16 54.1 °F /  12.3 °C 52.2 °F /  11.2 °C 29.9in /  1011.9hPa NNW 0.9mph /  1.4km/h 2mph /  3.2km/h 93% 0in /  0.0mm 40 W/m2
08:21 54.3 °F /  12.4 °C 52.3 °F /  11.3 °C 29.9in /  1011.9hPa NNE 0.9mph /  1.4km/h 2mph /  3.2km/h 93% 0in /  0.0mm 42 W/m2
08:26 54.3 °F /  12.4 °C 52.3 °F /  11.3 °C 29.9in /  1011.9hPa ENE 2mph /  3.2km/h 2mph /  3.2km/h 93% 0in /  0.0mm 47 W/m2
08:31 54.7 °F /  12.6 °C 52.3 °F /  11.3 °C 29.9in /  1011.9hPa Calm     92% 0in /  0.0mm 93 W/m2
08:36 54.9 °F /  12.7 °C 52.5 °F /  11.4 °C 29.9in /  1011.9hPa NW 0.9mph /  1.4km/h 3mph /  4.8km/h 92% 0in /  0.0mm 81 W/m2
08:41 55.2 °F /  12.9 °C 52.9 °F /  11.6 °C 29.9in /  1011.5hPa NE 0.9mph /  1.4km/h 1mph /  1.6km/h 92% 0in /  0.0mm 63 W/m2
08:46 55.4 °F /  13 °C 52.9 °F /  11.6 °C 29.9in /  1011.5hPa Calm   1mph /  1.6km/h 91% 0in /  0.0mm 70 W/m2
08:51 55.6 °F /  13.1 °C 53.1 °F /  11.7 °C 29.9in /  1011.9hPa Calm   2mph /  3.2km/h 91% 0in /  0.0mm 77 W/m2
08:56 55.8 °F /  13.2 °C 52.9 °F /  11.6 °C 29.9in /  1011.9hPa Calm   2mph /  3.2km/h 90% 0in /  0.0mm 83 W/m2
09:01 55.9 °F /  13.3 °C 53.1 °F /  11.7 °C 29.9in /  1011.9hPa NE 0.9mph /  1.4km/h 2mph /  3.2km/h 90% 0in /  0.0mm 113 W/m2
09:06 56.3 °F /  13.5 °C 53.1 °F /  11.7 °C 29.9in /  1011.5hPa ENE 0.9mph /  1.4km/h 2mph /  3.2km/h 89% 0in /  0.0mm 111 W/m2
09:11 56.5 °F /  13.6 °C 53.2 °F /  11.8 °C 29.9in /  1011.9hPa Calm   1mph /  1.6km/h 89% 0in /  0.0mm 176 W/m2
09:16 56.8 °F /  13.8 °C 53.6 °F /  12 °C 29.9in /  1011.9hPa ESE 2mph /  3.2km/h 3mph /  4.8km/h 89% 0in /  0.0mm 199 W/m2
09:21 57 °F /  13.9 °C 53.4 °F /  11.9 °C 29.9in /  1011.9hPa ESE 4mph /  6.4km/h 5mph /  8km/h 88% 0in /  0.0mm 183 W/m2
09:26 57.6 °F /  14.2 °C 53.8 °F /  12.1 °C 29.9in /  1011.9hPa NE 0.9mph /  1.4km/h 2mph /  3.2km/h 87% 0in /  0.0mm 142 W/m2
09:31 57.7 °F /  14.3 °C 53.6 °F /  12 °C 29.9in /  1012.2hPa ENE 0.9mph /  1.4km/h 5mph /  8km/h 86% 0in /  0.0mm 127 W/m2
09:36 57.7 °F /  14.3 °C 53.2 °F /  11.8 °C 29.9in /  1012.2hPa North 2.9mph /  4.7km/h 4mph /  6.4km/h 85% 0in /  0.0mm 127 W/m2
09:41 57.7 °F /  14.3 °C 53.2 °F /  11.8 °C 29.9in /  1012.2hPa Calm   2mph /  3.2km/h 85% 0in /  0.0mm 167 W/m2
09:46 57.9 °F /  14.4 °C 53.8 °F /  12.1 °C 29.9in /  1012.2hPa East 2.9mph /  4.7km/h 3mph /  4.8km/h 86% 0in /  0.0mm 176 W/m2
09:51 57.9 °F /  14.4 °C 53.4 °F /  11.9 °C 29.9in /  1012.2hPa ENE 2mph /  3.2km/h 4mph /  6.4km/h 85% 0in /  0.0mm 279 W/m2
09:56 58.3 °F /  14.6 °C 53.8 °F /  12.1 °C 29.9in /  1012.2hPa NNW 2mph /  3.2km/h 3mph /  4.8km/h 85% 0in /  0.0mm 297 W/m2
10:01 58.6 °F /  14.8 °C 54.1 °F /  12.3 °C 29.9in /  1012.5hPa NW 2mph /  3.2km/h 2mph /  3.2km/h 85% 0in /  0.0mm 345 W/m2
10:06 59.2 °F /  15.1 °C 54.3 °F /  12.4 °C 29.9in /  1012.5hPa Calm   2mph /  3.2km/h 84% 0in /  0.0mm 327 W/m2
10:11 59.5 °F /  15.3 °C 54.7 °F /  12.6 °C 29.9in /  1012.5hPa ESE 0.9mph /  1.4km/h 1mph /  1.6km/h 84% 0in /  0.0mm 345 W/m2
10:16 60.1 °F /  15.6 °C 54.9 °F /  12.7 °C 29.9in /  1012.5hPa ESE 2mph /  3.2km/h 3mph /  4.8km/h 83% 0in /  0.0mm 330 W/m2
10:21 60.4 °F /  15.8 °C 54.5 °F /  12.5 °C 29.9in /  1012.2hPa ENE 0.9mph /  1.4km/h 3mph /  4.8km/h 81% 0in /  0.0mm 378 W/m2
10:26 60.6 °F /  15.9 °C 54.7 °F /  12.6 °C 29.9in /  1012.5hPa ESE 6.9mph /  11.1km/h 9mph /  14.5km/h 81% 0in /  0.0mm 329 W/m2
10:31 60.8 °F /  16 °C 54.7 °F /  12.6 °C 29.9in /  1012.5hPa SSE 0.9mph /  1.4km/h 3mph /  4.8km/h 80% 0in /  0.0mm 434 W/m2
10:36 61.2 °F /  16.2 °C 54.9 °F /  12.7 °C 29.9in /  1012.5hPa ESE 2mph /  3.2km/h 3mph /  4.8km/h 80% 0in /  0.0mm 422 W/m2
10:41 61.5 °F /  16.4 °C 54.9 °F /  12.7 °C 29.9in /  1012.5hPa East 4mph /  6.4km/h 8mph /  12.9km/h 79% 0in /  0.0mm 424 W/m2
10:46 62.1 °F /  16.7 °C 55 °F /  12.8 °C 29.9in /  1012.5hPa NE 4mph /  6.4km/h 4mph /  6.4km/h 78% 0in /  0.0mm 411 W/m2
10:51 62.1 °F /  16.7 °C 54.7 °F /  12.6 °C 29.9in /  1012.5hPa NE 2mph /  3.2km/h 8mph /  12.9km/h 77% 0in /  0.0mm 399 W/m2
10:56 62.2 °F /  16.8 °C 54.9 °F /  12.7 °C 29.9in /  1012.5hPa East 0.9mph /  1.4km/h 2mph /  3.2km/h 77% 0in /  0.0mm 404 W/m2
11:01 62.4 °F /  16.9 °C 55 °F /  12.8 °C 29.9in /  1012.2hPa ESE 2.9mph /  4.7km/h 3mph /  4.8km/h 77% 0in /  0.0mm 450 W/m2
11:14 63.5 °F /  17.5 °C 55.4 °F /  13 °C 29.9in /  1012.5hPa ENE 2mph /  3.2km/h 4mph /  6.4km/h 75% 0in /  0.0mm 497 W/m2
11:19 63.7 °F /  17.6 °C 55.2 °F /  12.9 °C 29.9in /  1012.5hPa East 2.9mph /  4.7km/h 3mph /  4.8km/h 74% 0in /  0.0mm 476 W/m2
11:24 63.9 °F /  17.7 °C 55.4 °F /  13 °C 29.9in /  1012.5hPa East 4mph /  6.4km/h 5mph /  8km/h 74% 0in /  0.0mm 538 W/m2
11:29 64 °F /  17.8 °C 55.2 °F /  12.9 °C 29.9in /  1012.5hPa East 2mph /  3.2km/h 6mph /  9.7km/h 73% 0in /  0.0mm 512 W/m2
11:34 64.2 °F /  17.9 °C 55.8 °F /  13.2 °C 29.9in /  1012.5hPa ENE 2.9mph /  4.7km/h 3mph /  4.8km/h 74% 0in /  0.0mm 517 W/m2
11:39 64.6 °F /  18.1 °C 55.4 °F /  13 °C 29.9in /  1012.5hPa SW 4mph /  6.4km/h 6mph /  9.7km/h 72% 0in /  0.0mm 548 W/m2
11:44 64.8 °F /  18.2 °C 55.6 °F /  13.1 °C 29.9in /  1012.2hPa East 2mph /  3.2km/h 6mph /  9.7km/h 72% 0in /  0.0mm 552 W/m2
11:49 64.9 °F /  18.3 °C 55.8 °F /  13.2 °C 29.9in /  1012.5hPa NE 2mph /  3.2km/h 6mph /  9.7km/h 72% 0in /  0.0mm 462 W/m2
11:54 65.1 °F /  18.4 °C 55.9 °F /  13.3 °C 29.9in /  1012.5hPa East 4mph /  6.4km/h 4mph /  6.4km/h 72% 0in /  0.0mm 524 W/m2
11:59 65.5 °F /  18.6 °C 55.8 °F /  13.2 °C 29.9in /  1012.5hPa SW 4mph /  6.4km/h 6mph /  9.7km/h 71% 0in /  0.0mm 292 W/m2
12:04 65.3 °F /  18.5 °C 56.1 °F /  13.4 °C 29.9in /  1012.5hPa ESE 2mph /  3.2km/h 3mph /  4.8km/h 72% 0in /  0.0mm 605 W/m2
12:09 65.8 °F /  18.8 °C 56.5 °F /  13.6 °C 29.9in /  1012.5hPa NE 0.9mph /  1.4km/h 3mph /  4.8km/h 72% 0in /  0.0mm 557 W/m2
12:14 66 °F /  18.9 °C 55.9 °F /  13.3 °C 29.9in /  1012.5hPa ESE 2mph /  3.2km/h 4mph /  6.4km/h 70% 0in /  0.0mm 610 W/m2
12:19 66 °F /  18.9 °C 55.9 °F /  13.3 °C 29.9in /  1012.5hPa NE 0.9mph /  1.4km/h 5mph /  8km/h 70% 0in /  0.0mm 548 W/m2
12:24 66 °F /  18.9 °C 55.9 °F /  13.3 °C 29.9in /  1012.5hPa Calm   3mph /  4.8km/h 70% 0in /  0.0mm 265 W/m2
12:29 65.8 °F /  18.8 °C 55.8 °F /  13.2 °C 29.9in /  1012.5hPa Calm   3mph /  4.8km/h 70% 0in /  0.0mm 209 W/m2
12:34 65.8 °F /  18.8 °C 56.1 °F /  13.4 °C 29.9in /  1012.5hPa ENE 0.9mph /  1.4km/h 3mph /  4.8km/h 71% 0in /  0.0mm 596 W/m2
12:39 66 °F /  18.9 °C 56.7 °F /  13.7 °C 29.9in /  1012.5hPa ENE 0.9mph /  1.4km/h 3mph /  4.8km/h 72% 0in /  0.0mm 601 W/m2
12:45 66.2 °F /  19 °C 56.1 °F /  13.4 °C 29.9in /  1012.5hPa East 4mph /  6.4km/h 4mph /  6.4km/h 70% 0in /  0.0mm 566 W/m2
12:50 66 °F /  18.9 °C 55.6 °F /  13.1 °C 29.9in /  1012.5hPa East 0.9mph /  1.4km/h 4mph /  6.4km/h 69% 0in /  0.0mm 243 W/m2
12:55 65.8 °F /  18.8 °C 55.8 °F /  13.2 °C 29.9in /  1012.5hPa ESE 0.9mph /  1.4km/h 3mph /  4.8km/h 70% 0in /  0.0mm 220 W/m2
13:00 65.7 °F /  18.7 °C 55.9 °F /  13.3 °C 29.9in /  1012.5hPa East 0.9mph /  1.4km/h 4mph /  6.4km/h 71% 0in /  0.0mm 276 W/m2
13:05 65.5 °F /  18.6 °C 55.8 °F /  13.2 °C 29.9in /  1012.5hPa Calm   2mph /  3.2km/h 71% 0in /  0.0mm 299 W/m2
13:10 65.7 °F /  18.7 °C 56.3 °F /  13.5 °C 29.9in /  1012.5hPa Calm   2mph /  3.2km/h 72% 0in /  0.0mm 464 W/m2
13:15 65.8 °F /  18.8 °C 56.5 °F /  13.6 °C 29.9in /  1012.5hPa ENE 0.9mph /  1.4km/h 4mph /  6.4km/h 72% 0in /  0.0mm 448 W/m2
13:20 66.6 °F /  19.2 °C 56.8 °F /  13.8 °C 29.9in /  1012.5hPa East 4mph /  6.4km/h 4mph /  6.4km/h 71% 0in /  0.0mm 628 W/m2
13:25 66.7 °F /  19.3 °C 56.3 °F /  13.5 °C 29.9in /  1012.5hPa ENE 0.9mph /  1.4km/h 3mph /  4.8km/h 69% 0in /  0.0mm 315 W/m2
13:30 66.6 °F /  19.2 °C 56.1 °F /  13.4 °C 29.9in /  1012.5hPa Calm   6mph /  9.7km/h 69% 0in /  0.0mm 253 W/m2
13:35 66.6 °F /  19.2 °C 56.8 °F /  13.8 °C 29.9in /  1012.5hPa SE 2mph /  3.2km/h 5mph /  8km/h 71% 0in /  0.0mm 348 W/m2
13:40 66.9 °F /  19.4 °C 57.2 °F /  14 °C 29.9in /  1012.2hPa East 2mph /  3.2km/h 6mph /  9.7km/h 71% 0in /  0.0mm 712 W/m2
13:45 66.9 °F /  19.4 °C 56.5 °F /  13.6 °C 29.9in /  1012.2hPa ENE 0.9mph /  1.4km/h 5mph /  8km/h 69% 0in /  0.0mm 230 W/m2
13:50 66.9 °F /  19.4 °C 56.5 °F /  13.6 °C 29.9in /  1012.2hPa Calm   6mph /  9.7km/h 69% 0in /  0.0mm 218 W/m2
13:55 66.9 °F /  19.4 °C 57.2 °F /  14 °C 29.9in /  1012.2hPa Calm   1mph /  1.6km/h 71% 0in /  0.0mm 494 W/m2
14:00 66.9 °F /  19.4 °C 57.2 °F /  14 °C 29.9in /  1012.2hPa ESE 2.9mph /  4.7km/h 3mph /  4.8km/h 71% 0in /  0.0mm 599 W/m2
14:05 67.3 °F /  19.6 °C 57.2 °F /  14 °C 29.9in /  1012.2hPa NNW 0.9mph /  1.4km/h 2mph /  3.2km/h 70% 0in /  0.0mm 622 W/m2
14:10 67.6 °F /  19.8 °C 57 °F /  13.9 °C 29.9in /  1012.2hPa ESE 0.9mph /  1.4km/h 3mph /  4.8km/h 69% 0in /  0.0mm 360 W/m2
14:15 67.6 °F /  19.8 °C 57 °F /  13.9 °C 29.9in /  1012.2hPa SSE 0.9mph /  1.4km/h 3mph /  4.8km/h 69% 0in /  0.0mm 207 W/m2
14:20 67.6 °F /  19.8 °C 56.3 °F /  13.5 °C 29.9in /  1012.5hPa ENE 2mph /  3.2km/h 4mph /  6.4km/h 67% 0in /  0.0mm 200 W/m2
14:25 67.6 °F /  19.8 °C 56.7 °F /  13.7 °C 29.9in /  1012.2hPa ENE 0.9mph /  1.4km/h 3mph /  4.8km/h 68% 0in /  0.0mm 248 W/m2
14:30 67.5 °F /  19.7 °C 56.1 °F /  13.4 °C 29.9in /  1012.2hPa Calm   1mph /  1.6km/h 67% 0in /  0.0mm 362 W/m2
14:35 67.6 °F /  19.8 °C 56.3 °F /  13.5 °C 29.9in /  1012.2hPa Calm   2mph /  3.2km/h 67% 0in /  0.0mm 526 W/m2
14:40 68.2 °F /  20.1 °C 57.2 °F /  14 °C 29.9in /  1012.2hPa NE 4mph /  6.4km/h 6mph /  9.7km/h 68% 0in /  0.0mm 229 W/m2
14:45 67.8 °F /  19.9 °C 56.5 °F /  13.6 °C 29.9in /  1012.2hPa East 0.9mph /  1.4km/h 4mph /  6.4km/h 67% 0in /  0.0mm 207 W/m2
14:50 67.6 °F /  19.8 °C 56.3 °F /  13.5 °C 29.9in /  1012.2hPa NE 5mph /  8km/h 5mph /  8km/h 67% 0in /  0.0mm 211 W/m2
14:55 67.6 °F /  19.8 °C 56.3 °F /  13.5 °C 29.9in /  1012.2hPa Calm   3mph /  4.8km/h 67% 0in /  0.0mm 248 W/m2
15:00 67.6 °F /  19.8 °C 56.3 °F /  13.5 °C 29.9in /  1012.2hPa ESE 4mph /  6.4km/h 4mph /  6.4km/h 67% 0in /  0.0mm 243 W/m2
15:05 67.6 °F /  19.8 °C 55.9 °F /  13.3 °C 29.9in /  1012.2hPa NE 0.9mph /  1.4km/h 2mph /  3.2km/h 66% 0in /  0.0mm 315 W/m2
15:10 67.8 °F /  19.9 °C 56.1 °F /  13.4 °C 29.9in /  1012.2hPa Calm   3mph /  4.8km/h 66% 0in /  0.0mm 274 W/m2
15:15 68 °F /  20 °C 56.7 °F /  13.7 °C 29.9in /  1012.2hPa ESE 0.9mph /  1.4km/h 4mph /  6.4km/h 67% 0in /  0.0mm 332 W/m2
15:20 68.2 °F /  20.1 °C 57.6 °F /  14.2 °C 29.9in /  1012.2hPa NNE 6mph /  9.7km/h 6mph /  9.7km/h 69% 0in /  0.0mm 246 W/m2
15:25 68.4 °F /  20.2 °C 57.4 °F /  14.1 °C 29.9in /  1012.2hPa East 0.9mph /  1.4km/h 3mph /  4.8km/h 68% 0in /  0.0mm 199 W/m2
15:30 68.2 °F /  20.1 °C 56.8 °F /  13.8 °C 29.9in /  1012.2hPa Calm   3mph /  4.8km/h 67% 0in /  0.0mm 202 W/m2
15:35 67.8 °F /  19.9 °C 57.7 °F /  14.3 °C 29.9in /  1012.2hPa Calm   2mph /  3.2km/h 70% 0in /  0.0mm 243 W/m2
15:40 67.8 °F /  19.9 °C 58.1 °F /  14.5 °C 29.9in /  1012.2hPa East 0.9mph /  1.4km/h 1mph /  1.6km/h 71% 0in /  0.0mm 422 W/m2
15:45 68.2 °F /  20.1 °C 58.8 °F /  14.9 °C 29.9in /  1012.2hPa East 2.9mph /  4.7km/h 3mph /  4.8km/h 72% 0in /  0.0mm 657 W/m2
15:50 68.4 °F /  20.2 °C 58.6 °F /  14.8 °C 29.9in /  1012.2hPa South 0.9mph /  1.4km/h 2mph /  3.2km/h 71% 0in /  0.0mm 675 W/m2
15:55 68.7 °F /  20.4 °C 58.5 °F /  14.7 °C 29.9in /  1012.2hPa Calm   4mph /  6.4km/h 70% 0in /  0.0mm 457 W/m2
16:00 69.1 °F /  20.6 °C 58.8 °F /  14.9 °C 29.9in /  1012.2hPa SE 2.9mph /  4.7km/h 6mph /  9.7km/h 70% 0in /  0.0mm 536 W/m2
16:05 68.9 °F /  20.5 °C 57.9 °F /  14.4 °C 29.9in /  1012.2hPa Calm   6mph /  9.7km/h 68% 0in /  0.0mm 214 W/m2
16:10 68.7 °F /  20.4 °C 58.1 °F /  14.5 °C 29.9in /  1012.5hPa SSW 2mph /  3.2km/h 3mph /  4.8km/h 69% 0in /  0.0mm 236 W/m2
16:15 68.7 °F /  20.4 °C 58.5 °F /  14.7 °C 29.9in /  1012.5hPa WSW 2mph /  3.2km/h 6mph /  9.7km/h 70% 0in /  0.0mm 287 W/m2
16:20 68.5 °F /  20.3 °C 57.9 °F /  14.4 °C 29.9in /  1012.5hPa West 0.9mph /  1.4km/h 2mph /  3.2km/h 69% 0in /  0.0mm 418 W/m2
16:26 68.5 °F /  20.3 °C 57.9 °F /  14.4 °C 29.9in /  1012.5hPa Calm   4mph /  6.4km/h 69% 0in /  0.0mm 262 W/m2
16:31 68.5 °F /  20.3 °C 57.6 °F /  14.2 °C 29.9in /  1012.5hPa West 0.9mph /  1.4km/h 5mph /  8km/h 68% 0in /  0.0mm 223 W/m2
16:36 68.5 °F /  20.3 °C 58.3 °F /  14.6 °C 29.9in /  1012.5hPa WNW 0.9mph /  1.4km/h 3mph /  4.8km/h 70% 0in /  0.0mm 403 W/m2
16:41 68.5 °F /  20.3 °C 58.3 °F /  14.6 °C 29.9in /  1012.5hPa East 6mph /  9.7km/h 6mph /  9.7km/h 70% 0in /  0.0mm 330 W/m2
16:46 68.2 °F /  20.1 °C 58.1 °F /  14.5 °C 29.9in /  1012.5hPa ENE 0.9mph /  1.4km/h 4mph /  6.4km/h 70% 0in /  0.0mm 292 W/m2
16:51 67.8 °F /  19.9 °C 58.1 °F /  14.5 °C 29.9in /  1012.5hPa East 0.9mph /  1.4km/h 4mph /  6.4km/h 71% 0in /  0.0mm 158 W/m2
16:56 67.5 °F /  19.7 °C 58.1 °F /  14.5 °C 29.9in /  1012.5hPa East 0.9mph /  1.4km/h 3mph /  4.8km/h 72% 0in /  0.0mm 193 W/m2
17:01 67.3 °F /  19.6 °C 57.9 °F /  14.4 °C 29.9in /  1012.5hPa Calm   4mph /  6.4km/h 72% 0in /  0.0mm 179 W/m2
17:06 67.3 °F /  19.6 °C 58.3 °F /  14.6 °C 29.9in /  1012.5hPa ESE 0.9mph /  1.4km/h 2mph /  3.2km/h 73% 0in /  0.0mm 167 W/m2
17:11 67.3 °F /  19.6 °C 58.6 °F /  14.8 °C 29.9in /  1012.5hPa Calm   4mph /  6.4km/h 74% 0in /  0.0mm 253 W/m2
17:16 67.3 °F /  19.6 °C 58.6 °F /  14.8 °C 29.9in /  1012.5hPa WNW 0.9mph /  1.4km/h 3mph /  4.8km/h 74% 0in /  0.0mm 160 W/m2
17:21 67.1 °F /  19.5 °C 58.8 °F /  14.9 °C 29.9in /  1012.5hPa Calm   4mph /  6.4km/h 75% 0in /  0.0mm 139 W/m2
17:26 66.9 °F /  19.4 °C 57.9 °F /  14.4 °C 29.9in /  1012.5hPa SW 0.9mph /  1.4km/h 3mph /  4.8km/h 73% 0in /  0.0mm 179 W/m2
17:31 66.7 °F /  19.3 °C 58.1 °F /  14.5 °C 29.9in /  1012.5hPa NNW 0.9mph /  1.4km/h 2mph /  3.2km/h 74% 0in /  0.0mm 127 W/m2
17:36 66.7 °F /  19.3 °C 58.1 °F /  14.5 °C 29.9in /  1012.5hPa WNW 2mph /  3.2km/h 2mph /  3.2km/h 74% 0in /  0.0mm 171 W/m2
17:41 66.6 °F /  19.2 °C 58.5 °F /  14.7 °C 29.9in /  1012.5hPa Calm   1mph /  1.6km/h 75% 0in /  0.0mm 244 W/m2
17:46 66.7 °F /  19.3 °C 58.6 °F /  14.8 °C 29.9in /  1012.5hPa WNW 2mph /  3.2km/h 3mph /  4.8km/h 75% 0in /  0.0mm 251 W/m2
17:51 66.9 °F /  19.4 °C 58.8 °F /  14.9 °C 29.9in /  1012.5hPa Calm   2mph /  3.2km/h 75% 0in /  0.0mm 225 W/m2
17:56 67.1 °F /  19.5 °C 58.5 °F /  14.7 °C 29.9in /  1012.5hPa WSW 2mph /  3.2km/h 3mph /  4.8km/h 74% 0in /  0.0mm 178 W/m2
18:01 67.3 °F /  19.6 °C 59 °F /  15 °C 29.9in /  1012.9hPa West 2mph /  3.2km/h 2mph /  3.2km/h 75% 0in /  0.0mm 130 W/m2
18:06 67.1 °F /  19.5 °C 58.5 °F /  14.7 °C 29.9in /  1012.9hPa WNW 2mph /  3.2km/h 3mph /  4.8km/h 74% 0in /  0.0mm 120 W/m2
Juneau County Weather
Compliments of Weather Underground - 2 mb